View, Idaho
Current Conditions -  °F | °C
As of 2:53 AM on Monday 26 Jan 2015 (Local Time) from KBYI Reporting Station
Moderate Fog Moderate Fog  
Wind Chill: 22°   Ceiling: 200
Heat Index: 30°   Visibility: 0.5mi
Dew Point: 29°   Wind: 8mph
Humidity: 96%   Direction: 40°NE
Pressure: 30.41"   Gusts: NA
Location:  42.5011°N, 113.814°W
Report Text: KBYI 260953Z AUTO 04007KT 1/2SM FZFG VV002 M01/M02 A3041 RMK AO2 SLP304 I1001 T10111017
Loading
Personal Weather Stations






























Interactive Weather Map New forecast layout! Learn more

10-Day Weather Forecast

Advertisements
Track Severe Weather on mobile